sensor_id;sensor_type;location;lat;lon;timestamp;pressure;altitude;pressure_sealevel;temperature;humidity
33151;BME280;19508;42.578;23.416;2022-09-01T00:01:21;93533.91;;;18.26;71.39
33151;BME280;19508;42.578;23.416;2022-09-01T00:03:48;93525.09;;;18.07;71.44
33151;BME280;19508;42.578;23.416;2022-09-01T00:06:17;93528.22;;;18.14;71.17
33151;BME280;19508;42.578;23.416;2022-09-01T00:09:06;93527.19;;;18.10;70.52
33151;BME280;19508;42.578;23.416;2022-09-01T00:11:33;93520.84;;;18.15;70.25
33151;BME280;19508;42.578;23.416;2022-09-01T00:14:00;93517.09;;;18.11;70.69
33151;BME280;19508;42.578;23.416;2022-09-01T00:16:27;93522.63;;;18.19;69.82
33151;BME280;19508;42.578;23.416;2022-09-01T00:18:54;93524.13;;;18.25;70.07
33151;BME280;19508;42.578;23.416;2022-09-01T00:21:38;93527.25;;;18.32;70.93
33151;BME280;19508;42.578;23.416;2022-09-01T00:24:04;93522.28;;;18.35;71.17
33151;BME280;19508;42.578;23.416;2022-09-01T00:26:30;93527.88;;;18.29;71.56
33151;BME280;19508;42.578;23.416;2022-09-01T00:28:57;93521.91;;;18.27;71.49
33151;BME280;19508;42.578;23.416;2022-09-01T00:31:23;93518.88;;;18.29;71.53
33151;BME280;19508;42.578;23.416;2022-09-01T00:33:49;93517.44;;;18.31;72.59
33151;BME280;19508;42.578;23.416;2022-09-01T00:36:16;93507.16;;;18.28;72.86
33151;BME280;19508;42.578;23.416;2022-09-01T00:38:42;93503.81;;;18.31;72.79
33151;BME280;19508;42.578;23.416;2022-09-01T00:41:10;93502.81;;;18.27;72.68
33151;BME280;19508;42.578;23.416;2022-09-01T00:43:57;93506.56;;;18.31;72.74
33151;BME280;19508;42.578;23.416;2022-09-01T00:46:31;93504.88;;;18.22;73.20
33151;BME280;19508;42.578;23.416;2022-09-01T00:49:15;93508.34;;;18.36;72.96
33151;BME280;19508;42.578;23.416;2022-09-01T00:51:45;93512.03;;;18.18;74.26
33151;BME280;19508;42.578;23.416;2022-09-01T00:54:12;93519.91;;;18.19;74.49
33151;BME280;19508;42.578;23.416;2022-09-01T00:56:40;93522.28;;;17.98;74.44
33151;BME280;19508;42.578;23.416;2022-09-01T00:59:08;93514.94;;;17.99;72.97
33151;BME280;19508;42.578;23.416;2022-09-01T01:01:35;93522.59;;;17.97;72.65
33151;BME280;19508;42.578;23.416;2022-09-01T01:04:02;93523.91;;;17.99;71.96
33151;BME280;19508;42.578;23.416;2022-09-01T01:06:28;93533.28;;;18.07;70.74
33151;BME280;19508;42.578;23.416;2022-09-01T01:08:58;93537.13;;;18.06;70.76
33151;BME280;19508;42.578;23.416;2022-09-01T01:11:30;93527.44;;;18.00;71.68
33151;BME280;19508;42.578;23.416;2022-09-01T01:14:02;93530.88;;;17.92;73.04
33151;BME280;19508;42.578;23.416;2022-09-01T01:16:38;93545.22;;;17.84;73.51
33151;BME280;19508;42.578;23.416;2022-09-01T01:25:44;93535.84;;;17.76;77.31
33151;BME280;19508;42.578;23.416;2022-09-01T01:28:24;93533.81;;;17.82;77.46
33151;BME280;19508;42.578;23.416;2022-09-01T01:31:06;93546.22;;;17.88;77.94
33151;BME280;19508;42.578;23.416;2022-09-01T01:33:46;93534.81;;;17.86;78.53
33151;BME280;19508;42.578;23.416;2022-09-01T01:36:23;93544.41;;;17.83;79.11
33151;BME280;19508;42.578;23.416;2022-09-01T01:38:57;93550.66;;;17.84;79.03
33151;BME280;19508;42.578;23.416;2022-09-01T01:41:26;93546.63;;;17.81;79.50
33151;BME280;19508;42.578;23.416;2022-09-01T01:43:52;93540.34;;;17.94;78.84
33151;BME280;19508;42.578;23.416;2022-09-01T01:46:17;93545.38;;;18.01;77.96
33151;BME280;19508;42.578;23.416;2022-09-01T01:48:43;93547.22;;;17.92;76.68
33151;BME280;19508;42.578;23.416;2022-09-01T01:51:09;93548.94;;;17.88;76.76
33151;BME280;19508;42.578;23.416;2022-09-01T01:53:37;93555.50;;;17.87;76.46
33151;BME280;19508;42.578;23.416;2022-09-01T01:56:03;93547.34;;;17.87;75.16
33151;BME280;19508;42.578;23.416;2022-09-01T01:58:30;93556.91;;;17.84;73.56
33151;BME280;19508;42.578;23.416;2022-09-01T02:00:57;93550.38;;;17.71;72.95
33151;BME280;19508;42.578;23.416;2022-09-01T02:03:26;93563.56;;;17.64;73.46
33151;BME280;19508;42.578;23.416;2022-09-01T02:05:54;93567.97;;;17.60;72.79
33151;BME280;19508;42.578;23.416;2022-09-01T02:08:23;93564.47;;;17.60;72.70
33151;BME280;19508;42.578;23.416;2022-09-01T02:10:53;93573.56;;;17.55;72.38
33151;BME280;19508;42.578;23.416;2022-09-01T02:13:21;93561.75;;;17.46;72.88
33151;BME280;19508;42.578;23.416;2022-09-01T02:15:54;93567.19;;;17.32;73.21
33151;BME280;19508;42.578;23.416;2022-09-01T02:18:36;93569.78;;;17.24;73.85
33151;BME280;19508;42.578;23.416;2022-09-01T02:21:04;93558.91;;;17.24;74.09
33151;BME280;19508;42.578;23.416;2022-09-01T02:23:38;93556.69;;;17.26;74.42
33151;BME280;19508;42.578;23.416;2022-09-01T02:26:05;93562.25;;;17.20;74.98
33151;BME280;19508;42.578;23.416;2022-09-01T02:28:35;93566.66;;;17.16;76.15
33151;BME280;19508;42.578;23.416;2022-09-01T02:31:05;93561.50;;;17.15;76.51
33151;BME280;19508;42.578;23.416;2022-09-01T02:33:33;93558.41;;;17.22;76.19
33151;BME280;19508;42.578;23.416;2022-09-01T02:36:10;93553.16;;;17.25;75.89
33151;BME280;19508;42.578;23.416;2022-09-01T02:38:38;93562.97;;;17.26;74.33
33151;BME280;19508;42.578;23.416;2022-09-01T02:41:11;93559.59;;;17.15;74.08
33151;BME280;19508;42.578;23.416;2022-09-01T02:43:41;93559.91;;;17.14;73.64
33151;BME280;19508;42.578;23.416;2022-09-01T02:46:11;93558.78;;;17.01;73.51
33151;BME280;19508;42.578;23.416;2022-09-01T02:48:39;93561.09;;;16.94;74.06
33151;BME280;19508;42.578;23.416;2022-09-01T02:51:10;93553.50;;;16.91;73.58
33151;BME280;19508;42.578;23.416;2022-09-01T02:53:38;93550.09;;;16.85;73.97
33151;BME280;19508;42.578;23.416;2022-09-01T02:56:09;93553.41;;;16.82;73.80
33151;BME280;19508;42.578;23.416;2022-09-01T02:58:44;93547.94;;;16.82;73.88
33151;BME280;19508;42.578;23.416;2022-09-01T03:01:21;93554.31;;;16.78;74.48
33151;BME280;19508;42.578;23.416;2022-09-01T03:03:51;93542.41;;;16.74;73.98
33151;BME280;19508;42.578;23.416;2022-09-01T03:06:34;93548.13;;;16.72;74.14
33151;BME280;19508;42.578;23.416;2022-09-01T03:09:08;93546.28;;;16.68;74.16
33151;BME280;19508;42.578;23.416;2022-09-01T03:11:37;93558.41;;;16.56;74.73
33151;BME280;19508;42.578;23.416;2022-09-01T03:14:12;93559.91;;;16.49;75.19
33151;BME280;19508;42.578;23.416;2022-09-01T03:16:39;93541.72;;;16.49;75.04
33151;BME280;19508;42.578;23.416;2022-09-01T03:19:07;93552.91;;;16.61;74.99
33151;BME280;19508;42.578;23.416;2022-09-01T03:21:35;93546.75;;;16.56;74.48
33151;BME280;19508;42.578;23.416;2022-09-01T03:24:10;93548.66;;;16.55;74.53
33151;BME280;19508;42.578;23.416;2022-09-01T03:26:39;93550.94;;;16.48;74.76
33151;BME280;19508;42.578;23.416;2022-09-01T03:29:06;93549.44;;;16.42;74.96
33151;BME280;19508;42.578;23.416;2022-09-01T03:31:35;93546.19;;;16.40;74.93
33151;BME280;19508;42.578;23.416;2022-09-01T03:34:02;93549.50;;;16.37;76.36
33151;BME280;19508;42.578;23.416;2022-09-01T03:36:35;93540.34;;;16.33;76.23
33151;BME280;19508;42.578;23.416;2022-09-01T03:39:01;93536.28;;;16.30;76.99
33151;BME280;19508;42.578;23.416;2022-09-01T03:41:29;93536.94;;;16.41;75.74
33151;BME280;19508;42.578;23.416;2022-09-01T03:43:56;93544.94;;;16.51;75.49
33151;BME280;19508;42.578;23.416;2022-09-01T03:46:27;93543.38;;;16.45;75.81
33151;BME280;19508;42.578;23.416;2022-09-01T03:48:57;93540.88;;;16.49;74.84
33151;BME280;19508;42.578;23.416;2022-09-01T03:51:25;93557.47;;;16.47;74.53
33151;BME280;19508;42.578;23.416;2022-09-01T03:53:52;93541.03;;;16.39;74.44
33151;BME280;19508;42.578;23.416;2022-09-01T03:56:24;93560.88;;;16.39;74.63
33151;BME280;19508;42.578;23.416;2022-09-01T03:58:57;93558.81;;;16.31;77.73
33151;BME280;19508;42.578;23.416;2022-09-01T04:01:28;93551.91;;;16.39;77.60
33151;BME280;19508;42.578;23.416;2022-09-01T04:03:56;93556.97;;;16.45;77.63
33151;BME280;19508;42.578;23.416;2022-09-01T04:06:22;93538.38;;;16.52;77.58
33151;BME280;19508;42.578;23.416;2022-09-01T04:08:49;93549.09;;;16.62;78.27
33151;BME280;19508;42.578;23.416;2022-09-01T04:11:37;93544.09;;;16.70;79.09
33151;BME280;19508;42.578;23.416;2022-09-01T04:14:04;93543.31;;;16.69;79.14
33151;BME280;19508;42.578;23.416;2022-09-01T04:16:33;93539.16;;;16.72;79.29
33151;BME280;19508;42.578;23.416;2022-09-01T04:19:22;93544.72;;;16.80;77.84
33151;BME280;19508;42.578;23.416;2022-09-01T04:21:57;93541.28;;;16.75;79.11
33151;BME280;19508;42.578;23.416;2022-09-01T04:24:28;93537.38;;;16.81;79.46
33151;BME280;19508;42.578;23.416;2022-09-01T04:26:56;93545.53;;;16.81;80.32
33151;BME280;19508;42.578;23.416;2022-09-01T04:29:29;93544.84;;;16.89;80.32
33151;BME280;19508;42.578;23.416;2022-09-01T04:32:00;93546.69;;;16.94;80.01
33151;BME280;19508;42.578;23.416;2022-09-01T04:34:30;93548.00;;;16.96;79.73
33151;BME280;19508;42.578;23.416;2022-09-01T04:37:17;93540.75;;;17.05;79.87
33151;BME280;19508;42.578;23.416;2022-09-01T04:39:52;93546.13;;;17.10;79.14
33151;BME280;19508;42.578;23.416;2022-09-01T04:42:20;93543.59;;;17.14;77.94
33151;BME280;19508;42.578;23.416;2022-09-01T04:44:49;93553.47;;;17.24;77.95
33151;BME280;19508;42.578;23.416;2022-09-01T04:47:18;93540.78;;;17.33;78.65
33151;BME280;19508;42.578;23.416;2022-09-01T04:49:55;93550.06;;;17.45;79.17
33151;BME280;19508;42.578;23.416;2022-09-01T04:52:23;93536.75;;;17.44;79.82
33151;BME280;19508;42.578;23.416;2022-09-01T04:54:49;93534.50;;;17.60;79.09
33151;BME280;19508;42.578;23.416;2022-09-01T04:57:15;93538.66;;;17.85;78.30
33151;BME280;19508;42.578;23.416;2022-09-01T04:59:42;93538.97;;;17.83;78.74
33151;BME280;19508;42.578;23.416;2022-09-01T05:02:08;93540.34;;;17.94;77.90
33151;BME280;19508;42.578;23.416;2022-09-01T05:04:35;93542.16;;;17.99;77.43
33151;BME280;19508;42.578;23.416;2022-09-01T05:07:04;93536.09;;;18.02;77.39
33151;BME280;19508;42.578;23.416;2022-09-01T05:09:34;93535.81;;;18.03;76.95
33151;BME280;19508;42.578;23.416;2022-09-01T05:12:00;93535.28;;;18.15;76.97
33151;BME280;19508;42.578;23.416;2022-09-01T05:14:36;93540.88;;;18.32;76.06
33151;BME280;19508;42.578;23.416;2022-09-01T05:17:03;93529.13;;;18.46;76.13
33151;BME280;19508;42.578;23.416;2022-09-01T05:19:35;93535.94;;;18.79;74.71
33151;BME280;19508;42.578;23.416;2022-09-01T05:22:01;93521.69;;;18.82;74.91
33151;BME280;19508;42.578;23.416;2022-09-01T05:24:30;93531.47;;;19.06;74.25
33151;BME280;19508;42.578;23.416;2022-09-01T05:26:59;93527.38;;;19.26;72.84
33151;BME280;19508;42.578;23.416;2022-09-01T05:29:25;93532.03;;;19.25;72.72
33151;BME280;19508;42.578;23.416;2022-09-01T05:31:52;93532.72;;;19.39;72.27
33151;BME280;19508;42.578;23.416;2022-09-01T05:34:20;93527.75;;;19.41;72.18
33151;BME280;19508;42.578;23.416;2022-09-01T05:36:56;93531.34;;;19.51;72.50
33151;BME280;19508;42.578;23.416;2022-09-01T05:39:24;93535.66;;;19.52;71.87
33151;BME280;19508;42.578;23.416;2022-09-01T05:41:50;93537.03;;;19.71;71.35
33151;BME280;19508;42.578;23.416;2022-09-01T05:44:17;93535.66;;;19.91;70.99
33151;BME280;19508;42.578;23.416;2022-09-01T05:46:43;93523.31;;;20.11;70.13
33151;BME280;19508;42.578;23.416;2022-09-01T05:49:10;93535.06;;;20.29;69.91
33151;BME280;19508;42.578;23.416;2022-09-01T05:51:39;93530.28;;;20.43;69.01
33151;BME280;19508;42.578;23.416;2022-09-01T05:54:06;93527.22;;;20.45;69.06
33151;BME280;19508;42.578;23.416;2022-09-01T05:56:34;93531.22;;;20.47;68.32
33151;BME280;19508;42.578;23.416;2022-09-01T05:59:03;93533.81;;;20.52;68.53
33151;BME280;19508;42.578;23.416;2022-09-01T06:01:28;93533.00;;;20.61;68.83
33151;BME280;19508;42.578;23.416;2022-09-01T06:03:59;93531.69;;;20.75;68.16
33151;BME280;19508;42.578;23.416;2022-09-01T06:06:35;93526.41;;;20.79;67.75
33151;BME280;19508;42.578;23.416;2022-09-01T06:09:03;93530.38;;;20.90;67.80
33151;BME280;19508;42.578;23.416;2022-09-01T06:11:29;93522.97;;;20.99;68.28
33151;BME280;19508;42.578;23.416;2022-09-01T06:13:58;93517.75;;;21.24;66.70
33151;BME280;19508;42.578;23.416;2022-09-01T06:16:24;93515.34;;;21.31;66.22
33151;BME280;19508;42.578;23.416;2022-09-01T06:18:51;93510.59;;;21.49;65.41
33151;BME280;19508;42.578;23.416;2022-09-01T06:21:19;93513.31;;;21.57;65.63
33151;BME280;19508;42.578;23.416;2022-09-01T06:23:46;93511.28;;;21.75;64.55
33151;BME280;19508;42.578;23.416;2022-09-01T06:26:31;93511.25;;;22.05;64.36
33151;BME280;19508;42.578;23.416;2022-09-01T06:29:03;93517.34;;;22.40;63.57
33151;BME280;19508;42.578;23.416;2022-09-01T06:31:32;93520.69;;;22.66;63.14
33151;BME280;19508;42.578;23.416;2022-09-01T06:34:00;93519.19;;;22.90;61.52
33151;BME280;19508;42.578;23.416;2022-09-01T06:36:26;93519.06;;;23.19;61.18
33151;BME280;19508;42.578;23.416;2022-09-01T06:39:28;93514.78;;;23.55;59.07
33151;BME280;19508;42.578;23.416;2022-09-01T06:41:53;93519.31;;;23.59;59.18
33151;BME280;19508;42.578;23.416;2022-09-01T06:44:19;93505.88;;;23.82;58.91
33151;BME280;19508;42.578;23.416;2022-09-01T06:46:48;93503.56;;;24.33;57.41
33151;BME280;19508;42.578;23.416;2022-09-01T06:49:13;93501.22;;;24.60;55.35
33151;BME280;19508;42.578;23.416;2022-09-01T06:51:39;93504.44;;;24.90;55.70
33151;BME280;19508;42.578;23.416;2022-09-01T06:54:05;93502.50;;;25.18;55.12
33151;BME280;19508;42.578;23.416;2022-09-01T06:56:31;93497.09;;;25.22;54.60
33151;BME280;19508;42.578;23.416;2022-09-01T06:58:59;93491.06;;;25.48;52.57
33151;BME280;19508;42.578;23.416;2022-09-01T07:01:26;93495.25;;;25.57;53.10
33151;BME280;19508;42.578;23.416;2022-09-01T07:03:53;93490.91;;;25.56;52.62
33151;BME280;19508;42.578;23.416;2022-09-01T07:06:21;93493.66;;;25.56;53.13
33151;BME280;19508;42.578;23.416;2022-09-01T07:08:56;93502.72;;;25.88;52.81
33151;BME280;19508;42.578;23.416;2022-09-01T07:11:27;93497.94;;;26.01;52.09
33151;BME280;19508;42.578;23.416;2022-09-01T07:13:58;93499.75;;;26.13;53.35
33151;BME280;19508;42.578;23.416;2022-09-01T07:16:26;93496.94;;;26.09;51.33
33151;BME280;19508;42.578;23.416;2022-09-01T07:18:55;93498.84;;;26.40;51.85
33151;BME280;19508;42.578;23.416;2022-09-01T07:21:23;93492.84;;;26.54;50.80
33151;BME280;19508;42.578;23.416;2022-09-01T07:26:59;93486.84;;;26.68;50.22
33151;BME280;19508;42.578;23.416;2022-09-01T07:29:25;93488.22;;;26.58;50.18
33151;BME280;19508;42.578;23.416;2022-09-01T07:31:51;93483.41;;;26.55;52.26
33151;BME280;19508;42.578;23.416;2022-09-01T07:34:18;93475.53;;;26.57;51.84
33151;BME280;19508;42.578;23.416;2022-09-01T07:36:44;93483.53;;;26.43;53.13
33151;BME280;19508;42.578;23.416;2022-09-01T07:39:10;93486.69;;;26.80;50.07
33151;BME280;19508;42.578;23.416;2022-09-01T07:41:36;93493.72;;;26.58;53.03
33151;BME280;19508;42.578;23.416;2022-09-01T07:44:04;93486.69;;;26.10;53.27
33151;BME280;19508;42.578;23.416;2022-09-01T07:46:32;93488.22;;;26.07;53.58
33151;BME280;19508;42.578;23.416;2022-09-01T07:48:58;93492.03;;;26.19;53.72
33151;BME280;19508;42.578;23.416;2022-09-01T07:51:26;93494.16;;;26.25;53.94
33151;BME280;19508;42.578;23.416;2022-09-01T07:53:52;93491.47;;;26.29;53.91
33151;BME280;19508;42.578;23.416;2022-09-01T07:56:20;93493.41;;;26.28;53.41
33151;BME280;19508;42.578;23.416;2022-09-01T07:58:47;93496.94;;;26.09;54.53
33151;BME280;19508;42.578;23.416;2022-09-01T08:01:21;93493.63;;;26.20;53.41
33151;BME280;19508;42.578;23.416;2022-09-01T08:03:53;93491.03;;;26.62;50.87
33151;BME280;19508;42.578;23.416;2022-09-01T08:06:21;93493.94;;;26.69;51.89
33151;BME280;19508;42.578;23.416;2022-09-01T08:08:49;93501.63;;;26.25;52.19
33151;BME280;19508;42.578;23.416;2022-09-01T08:11:24;93505.16;;;26.76;52.39
33151;BME280;19508;42.578;23.416;2022-09-01T08:13:51;93501.44;;;27.26;50.64
33151;BME280;19508;42.578;23.416;2022-09-01T08:16:18;93496.81;;;27.34;51.76
33151;BME280;19508;42.578;23.416;2022-09-01T08:18:45;93496.03;;;27.76;48.44
33151;BME280;19508;42.578;23.416;2022-09-01T08:21:13;93490.44;;;27.95;49.91
33151;BME280;19508;42.578;23.416;2022-09-01T08:23:40;93493.91;;;28.15;48.08
33151;BME280;19508;42.578;23.416;2022-09-01T08:26:07;93488.78;;;28.17;49.98
33151;BME280;19508;42.578;23.416;2022-09-01T08:28:33;93494.47;;;28.28;45.78
33151;BME280;19508;42.578;23.416;2022-09-01T08:30:59;93489.28;;;28.23;47.54
33151;BME280;19508;42.578;23.416;2022-09-01T08:33:25;93483.25;;;28.17;49.04
33151;BME280;19508;42.578;23.416;2022-09-01T08:35:51;93486.78;;;28.41;46.36
33151;BME280;19508;42.578;23.416;2022-09-01T08:38:18;93486.03;;;28.44;46.96
33151;BME280;19508;42.578;23.416;2022-09-01T08:40:51;93483.06;;;28.56;46.65
33151;BME280;19508;42.578;23.416;2022-09-01T08:45:56;93481.53;;;28.62;45.94
33151;BME280;19508;42.578;23.416;2022-09-01T08:48:43;93482.19;;;28.52;45.87
33151;BME280;19508;42.578;23.416;2022-09-01T08:54:00;93482.06;;;29.01;46.47
33151;BME280;19508;42.578;23.416;2022-09-01T08:56:27;93473.63;;;29.24;43.47
33151;BME280;19508;42.578;23.416;2022-09-01T08:58:52;93468.63;;;29.74;41.50
33151;BME280;19508;42.578;23.416;2022-09-01T09:01:29;93456.13;;;29.54;42.17
33151;BME280;19508;42.578;23.416;2022-09-01T09:09:08;93459.47;;;28.69;44.91
33151;BME280;19508;42.578;23.416;2022-09-01T09:17:23;93453.03;;;28.61;44.33
33151;BME280;19508;42.578;23.416;2022-09-01T09:19:52;93450.78;;;28.14;48.75
33151;BME280;19508;42.578;23.416;2022-09-01T09:22:18;93454.56;;;28.55;45.07
33151;BME280;19508;42.578;23.416;2022-09-01T09:24:51;93449.59;;;28.38;45.72
33151;BME280;19508;42.578;23.416;2022-09-01T09:27:23;93455.78;;;28.58;45.82
33151;BME280;19508;42.578;23.416;2022-09-01T09:29:57;93453.16;;;28.38;44.32
33151;BME280;19508;42.578;23.416;2022-09-01T09:38:26;93457.78;;;27.59;46.96
33151;BME280;19508;42.578;23.416;2022-09-01T09:43:27;93451.72;;;26.88;48.71
33151;BME280;19508;42.578;23.416;2022-09-01T09:46:27;93441.97;;;26.75;49.44
33151;BME280;19508;42.578;23.416;2022-09-01T09:49:22;93444.31;;;26.73;48.96
33151;BME280;19508;42.578;23.416;2022-09-01T09:51:55;93445.19;;;26.77;48.82
33151;BME280;19508;42.578;23.416;2022-09-01T09:54:30;93440.66;;;27.26;47.34
33151;BME280;19508;42.578;23.416;2022-09-01T09:57:03;93436.78;;;27.77;48.26
33151;BME280;19508;42.578;23.416;2022-09-01T09:59:34;93438.25;;;28.20;44.85
33151;BME280;19508;42.578;23.416;2022-09-01T10:02:38;93437.56;;;28.57;44.34
33151;BME280;19508;42.578;23.416;2022-09-01T10:05:24;93445.59;;;28.96;43.36
33151;BME280;19508;42.578;23.416;2022-09-01T10:07:51;93428.22;;;28.69;45.69
33151;BME280;19508;42.578;23.416;2022-09-01T10:13:02;93432.53;;;28.66;44.70
33151;BME280;19508;42.578;23.416;2022-09-01T10:15:29;93420.34;;;28.41;44.40
33151;BME280;19508;42.578;23.416;2022-09-01T10:18:05;93427.75;;;28.06;44.77
33151;BME280;19508;42.578;23.416;2022-09-01T10:20:33;93426.31;;;27.90;45.02
33151;BME280;19508;42.578;23.416;2022-09-01T10:23:01;93424.72;;;27.66;44.99
33151;BME280;19508;42.578;23.416;2022-09-01T10:25:29;93429.41;;;27.62;45.46
33151;BME280;19508;42.578;23.416;2022-09-01T10:28:18;93430.56;;;27.38;46.26
33151;BME280;19508;42.578;23.416;2022-09-01T10:30:49;93431.88;;;27.44;47.23
33151;BME280;19508;42.578;23.416;2022-09-01T10:33:18;93423.53;;;27.90;46.69
33151;BME280;19508;42.578;23.416;2022-09-01T10:35:45;93425.69;;;27.77;46.32
33151;BME280;19508;42.578;23.416;2022-09-01T10:38:24;93418.13;;;27.97;46.38
33151;BME280;19508;42.578;23.416;2022-09-01T10:40:52;93410.09;;;27.88;45.70
33151;BME280;19508;42.578;23.416;2022-09-01T10:43:47;93419.81;;;27.78;44.33
33151;BME280;19508;42.578;23.416;2022-09-01T10:46:40;93414.59;;;27.73;46.02
33151;BME280;19508;42.578;23.416;2022-09-01T10:51:52;93418.91;;;27.48;45.47
33151;BME280;19508;42.578;23.416;2022-09-01T10:57:07;93414.53;;;27.47;47.00
33151;BME280;19508;42.578;23.416;2022-09-01T10:59:35;93411.66;;;27.40;47.88
33151;BME280;19508;42.578;23.416;2022-09-01T11:07:02;93402.00;;;27.76;47.16
33151;BME280;19508;42.578;23.416;2022-09-01T11:09:33;93400.47;;;27.78;48.76
33151;BME280;19508;42.578;23.416;2022-09-01T11:14:52;93382.81;;;28.17;46.88
33151;BME280;19508;42.578;23.416;2022-09-01T11:17:25;93382.06;;;28.20;47.35
33151;BME280;19508;42.578;23.416;2022-09-01T11:28:04;93371.09;;;28.27;46.83
33151;BME280;19508;42.578;23.416;2022-09-01T11:35:35;93374.63;;;28.54;45.90
33151;BME280;19508;42.578;23.416;2022-09-01T11:38:03;93371.44;;;28.52;45.47
33151;BME280;19508;42.578;23.416;2022-09-01T11:40:33;93365.91;;;28.52;47.12
33151;BME280;19508;42.578;23.416;2022-09-01T11:43:03;93361.84;;;28.46;47.53
33151;BME280;19508;42.578;23.416;2022-09-01T11:45:31;93365.59;;;28.60;44.14
33151;BME280;19508;42.578;23.416;2022-09-01T11:48:05;93348.59;;;28.62;44.90
33151;BME280;19508;42.578;23.416;2022-09-01T11:50:33;93351.16;;;28.78;45.19
33151;BME280;19508;42.578;23.416;2022-09-01T11:53:02;93337.19;;;28.67;44.27
33151;BME280;19508;42.578;23.416;2022-09-01T11:55:42;93334.44;;;28.67;44.96
33151;BME280;19508;42.578;23.416;2022-09-01T11:58:10;93333.59;;;28.63;45.34
33151;BME280;19508;42.578;23.416;2022-09-01T12:00:39;93327.97;;;28.56;45.74
33151;BME280;19508;42.578;23.416;2022-09-01T12:03:19;93331.97;;;28.58;47.00
33151;BME280;19508;42.578;23.416;2022-09-01T12:05:45;93327.13;;;28.52;45.99
33151;BME280;19508;42.578;23.416;2022-09-01T12:08:17;93326.50;;;28.65;45.65
33151;BME280;19508;42.578;23.416;2022-09-01T12:10:44;93328.09;;;28.66;45.66
33151;BME280;19508;42.578;23.416;2022-09-01T12:13:15;93324.84;;;28.61;45.61
33151;BME280;19508;42.578;23.416;2022-09-01T12:15:41;93331.19;;;28.61;46.60
33151;BME280;19508;42.578;23.416;2022-09-01T12:18:13;93327.41;;;28.77;45.88
33151;BME280;19508;42.578;23.416;2022-09-01T12:20:39;93326.44;;;28.96;45.85
33151;BME280;19508;42.578;23.416;2022-09-01T12:23:26;93325.94;;;29.27;48.27
33151;BME280;19508;42.578;23.416;2022-09-01T12:28:31;93322.66;;;30.24;42.64
33151;BME280;19508;42.578;23.416;2022-09-01T12:31:19;93314.63;;;30.96;42.54
33151;BME280;19508;42.578;23.416;2022-09-01T12:33:46;93309.91;;;31.50;39.06
33151;BME280;19508;42.578;23.416;2022-09-01T12:36:37;93305.44;;;32.16;38.45
33151;BME280;19508;42.578;23.416;2022-09-01T12:39:23;93307.31;;;32.59;38.96
33151;BME280;19508;42.578;23.416;2022-09-01T12:42:08;93304.97;;;32.50;37.39
33151;BME280;19508;42.578;23.416;2022-09-01T12:47:08;93302.31;;;33.02;36.82
33151;BME280;19508;42.578;23.416;2022-09-01T12:49:47;93303.19;;;32.92;36.56
33151;BME280;19508;42.578;23.416;2022-09-01T12:52:20;93300.59;;;32.49;36.95
33151;BME280;19508;42.578;23.416;2022-09-01T12:54:52;93288.34;;;32.14;37.31
33151;BME280;19508;42.578;23.416;2022-09-01T12:57:36;93294.00;;;31.89;37.05
33151;BME280;19508;42.578;23.416;2022-09-01T13:02:43;93298.72;;;30.96;36.67
33151;BME280;19508;42.578;23.416;2022-09-01T13:05:26;93297.91;;;30.78;38.59
33151;BME280;19508;42.578;23.416;2022-09-01T13:07:53;93298.56;;;30.43;40.20
33151;BME280;19508;42.578;23.416;2022-09-01T13:10:21;93291.16;;;29.95;41.80
33151;BME280;19508;42.578;23.416;2022-09-01T13:12:47;93291.91;;;29.85;42.09
33151;BME280;19508;42.578;23.416;2022-09-01T13:15:13;93297.25;;;29.57;42.78
33151;BME280;19508;42.578;23.416;2022-09-01T13:17:38;93301.00;;;29.27;43.59
33151;BME280;19508;42.578;23.416;2022-09-01T13:20:05;93291.50;;;29.28;44.72
33151;BME280;19508;42.578;23.416;2022-09-01T13:22:31;93295.28;;;29.09;44.42
33151;BME280;19508;42.578;23.416;2022-09-01T13:24:57;93297.50;;;28.89;44.89
33151;BME280;19508;42.578;23.416;2022-09-01T13:27:22;93297.44;;;28.49;45.57
33151;BME280;19508;42.578;23.416;2022-09-01T13:29:48;93300.38;;;28.29;46.12
33151;BME280;19508;42.578;23.416;2022-09-01T13:32:15;93317.53;;;28.12;47.11
33151;BME280;19508;42.578;23.416;2022-09-01T13:34:41;93311.84;;;27.71;48.39
33151;BME280;19508;42.578;23.416;2022-09-01T13:37:08;93322.34;;;27.36;51.07
33151;BME280;19508;42.578;23.416;2022-09-01T13:39:33;93328.84;;;27.01;54.37
33151;BME280;19508;42.578;23.416;2022-09-01T13:41:59;93343.78;;;26.54;58.65
33151;BME280;19508;42.578;23.416;2022-09-01T13:44:25;93346.22;;;26.21;61.07
33151;BME280;19508;42.578;23.416;2022-09-01T13:46:50;93341.78;;;25.97;61.83
33151;BME280;19508;42.578;23.416;2022-09-01T13:49:16;93335.88;;;25.79;62.24
33151;BME280;19508;42.578;23.416;2022-09-01T13:51:41;93329.31;;;25.68;65.08
33151;BME280;19508;42.578;23.416;2022-09-01T13:54:07;93332.25;;;25.59;65.57
33151;BME280;19508;42.578;23.416;2022-09-01T13:56:32;93340.72;;;25.50;67.70
33151;BME280;19508;42.578;23.416;2022-09-01T13:58:59;93338.09;;;25.38;67.86
33151;BME280;19508;42.578;23.416;2022-09-01T14:01:25;93333.72;;;25.37;67.41
33151;BME280;19508;42.578;23.416;2022-09-01T14:03:50;93336.16;;;25.23;68.82
33151;BME280;19508;42.578;23.416;2022-09-01T14:06:16;93338.81;;;25.19;67.33
33151;BME280;19508;42.578;23.416;2022-09-01T14:08:41;93333.13;;;24.96;67.70
33151;BME280;19508;42.578;23.416;2022-09-01T14:11:07;93342.34;;;24.88;65.90
33151;BME280;19508;42.578;23.416;2022-09-01T14:13:33;93334.16;;;24.76;66.53
33151;BME280;19508;42.578;23.416;2022-09-01T14:15:59;93337.50;;;24.54;67.01
33151;BME280;19508;42.578;23.416;2022-09-01T14:18:25;93335.91;;;24.53;68.46